sensor_id;sensor_type;location;lat;lon;timestamp;pressure;altitude;pressure_sealevel;temperature;humidity
46768;BME280;69007;48.978;18.066;2023-11-19T00:00:15;97971.78;;;1.33;100.00
46768;BME280;69007;48.978;18.066;2023-11-19T00:02:41;98017.91;;;1.56;100.00
46768;BME280;69007;48.978;18.066;2023-11-19T00:05:07;97999.31;;;1.55;100.00
46768;BME280;69007;48.978;18.066;2023-11-19T00:07:35;97997.91;;;1.59;100.00
46768;BME280;69007;48.978;18.066;2023-11-19T00:10:01;97995.63;;;1.56;100.00
46768;BME280;69007;48.978;18.066;2023-11-19T00:12:29;97996.84;;;1.53;100.00
46768;BME280;69007;48.978;18.066;2023-11-19T00:14:54;97967.28;;;1.40;100.00
46768;BME280;69007;48.978;18.066;2023-11-19T00:17:20;97954.88;;;1.32;100.00
46768;BME280;69007;48.978;18.066;2023-11-19T00:19:45;97957.75;;;1.31;100.00
46768;BME280;69007;48.978;18.066;2023-11-19T00:22:11;97981.22;;;1.28;100.00
46768;BME280;69007;48.978;18.066;2023-11-19T00:24:37;97994.94;;;1.40;100.00
46768;BME280;69007;48.978;18.066;2023-11-19T00:27:02;97994.50;;;1.43;100.00
46768;BME280;69007;48.978;18.066;2023-11-19T00:29:27;98013.28;;;1.43;100.00
46768;BME280;69007;48.978;18.066;2023-11-19T00:31:53;98004.81;;;1.40;100.00
46768;BME280;69007;48.978;18.066;2023-11-19T00:34:18;97992.19;;;1.34;100.00
46768;BME280;69007;48.978;18.066;2023-11-19T00:36:46;97994.31;;;1.45;100.00
46768;BME280;69007;48.978;18.066;2023-11-19T00:39:11;97963.03;;;1.17;100.00
46768;BME280;69007;48.978;18.066;2023-11-19T00:41:40;97972.09;;;1.16;100.00
46768;BME280;69007;48.978;18.066;2023-11-19T00:44:05;97989.28;;;1.28;100.00
46768;BME280;69007;48.978;18.066;2023-11-19T00:46:30;97985.78;;;1.28;100.00
46768;BME280;69007;48.978;18.066;2023-11-19T00:48:58;97982.91;;;1.29;100.00
46768;BME280;69007;48.978;18.066;2023-11-19T00:51:25;97975.25;;;1.26;100.00
46768;BME280;69007;48.978;18.066;2023-11-19T00:53:51;97995.09;;;1.32;100.00
46768;BME280;69007;48.978;18.066;2023-11-19T00:56:18;97979.19;;;1.31;100.00
46768;BME280;69007;48.978;18.066;2023-11-19T00:58:44;98001.78;;;1.50;100.00
46768;BME280;69007;48.978;18.066;2023-11-19T01:01:11;97983.59;;;1.45;100.00
46768;BME280;69007;48.978;18.066;2023-11-19T01:03:37;97945.97;;;1.32;100.00
46768;BME280;69007;48.978;18.066;2023-11-19T01:06:03;97945.16;;;1.31;100.00
46768;BME280;69007;48.978;18.066;2023-11-19T01:08:28;97977.84;;;1.48;100.00
46768;BME280;69007;48.978;18.066;2023-11-19T01:10:54;97950.78;;;1.43;100.00
46768;BME280;69007;48.978;18.066;2023-11-19T01:13:19;97941.72;;;1.44;100.00
46768;BME280;69007;48.978;18.066;2023-11-19T01:15:45;97960.16;;;1.60;100.00
46768;BME280;69007;48.978;18.066;2023-11-19T01:18:10;97961.00;;;1.68;100.00
46768;BME280;69007;48.978;18.066;2023-11-19T01:20:36;97967.16;;;1.61;100.00
46768;BME280;69007;48.978;18.066;2023-11-19T01:23:02;97920.06;;;1.39;100.00
46768;BME280;69007;48.978;18.066;2023-11-19T01:25:27;97951.06;;;1.61;100.00
46768;BME280;69007;48.978;18.066;2023-11-19T01:27:53;97908.50;;;1.45;100.00
46768;BME280;69007;48.978;18.066;2023-11-19T01:30:18;97906.47;;;1.47;100.00
46768;BME280;69007;48.978;18.066;2023-11-19T01:32:44;97916.19;;;1.55;100.00
46768;BME280;69007;48.978;18.066;2023-11-19T01:35:10;97888.69;;;1.39;100.00
46768;BME280;69007;48.978;18.066;2023-11-19T01:37:35;97894.84;;;1.33;100.00
46768;BME280;69007;48.978;18.066;2023-11-19T01:40:01;97918.22;;;1.46;100.00
46768;BME280;69007;48.978;18.066;2023-11-19T01:42:29;97898.13;;;1.28;100.00
46768;BME280;69007;48.978;18.066;2023-11-19T01:44:57;97893.41;;;1.31;100.00
46768;BME280;69007;48.978;18.066;2023-11-19T01:47:23;97860.97;;;1.19;100.00
46768;BME280;69007;48.978;18.066;2023-11-19T01:49:50;97880.06;;;1.44;100.00
46768;BME280;69007;48.978;18.066;2023-11-19T01:52:16;97897.63;;;1.60;100.00
46768;BME280;69007;48.978;18.066;2023-11-19T01:54:41;97903.63;;;1.55;100.00
46768;BME280;69007;48.978;18.066;2023-11-19T01:57:08;97883.28;;;1.26;100.00
46768;BME280;69007;48.978;18.066;2023-11-19T01:59:34;97889.88;;;1.30;100.00
46768;BME280;69007;48.978;18.066;2023-11-19T02:02:00;97893.34;;;1.17;100.00
46768;BME280;69007;48.978;18.066;2023-11-19T02:04:25;97859.19;;;0.91;100.00
46768;BME280;69007;48.978;18.066;2023-11-19T02:06:51;97833.63;;;0.88;100.00
46768;BME280;69007;48.978;18.066;2023-11-19T02:09:19;97866.31;;;1.19;100.00
46768;BME280;69007;48.978;18.066;2023-11-19T02:11:45;97864.31;;;1.27;100.00
46768;BME280;69007;48.978;18.066;2023-11-19T02:14:14;97814.31;;;1.06;100.00
46768;BME280;69007;48.978;18.066;2023-11-19T02:16:40;97858.94;;;1.21;100.00
46768;BME280;69007;48.978;18.066;2023-11-19T02:19:05;97845.09;;;1.17;100.00
46768;BME280;69007;48.978;18.066;2023-11-19T02:21:31;97851.69;;;1.15;100.00
46768;BME280;69007;48.978;18.066;2023-11-19T02:23:57;97846.09;;;1.09;100.00
46768;BME280;69007;48.978;18.066;2023-11-19T02:26:39;97836.81;;;1.12;100.00
46768;BME280;69007;48.978;18.066;2023-11-19T02:29:04;97829.19;;;1.09;100.00
46768;BME280;69007;48.978;18.066;2023-11-19T02:31:32;97825.47;;;1.10;100.00
46768;BME280;69007;48.978;18.066;2023-11-19T02:33:57;97820.06;;;0.97;100.00
46768;BME280;69007;48.978;18.066;2023-11-19T02:36:22;97811.84;;;1.05;100.00
46768;BME280;69007;48.978;18.066;2023-11-19T02:38:48;97793.06;;;0.98;100.00
46768;BME280;69007;48.978;18.066;2023-11-19T02:41:14;97798.25;;;1.06;100.00
46768;BME280;69007;48.978;18.066;2023-11-19T02:43:39;97776.19;;;1.04;100.00
46768;BME280;69007;48.978;18.066;2023-11-19T02:46:05;97762.78;;;1.04;100.00
46768;BME280;69007;48.978;18.066;2023-11-19T02:48:34;97794.00;;;1.25;100.00
46768;BME280;69007;48.978;18.066;2023-11-19T02:51:03;97805.13;;;1.22;100.00
46768;BME280;69007;48.978;18.066;2023-11-19T02:53:34;97804.72;;;1.25;100.00
46768;BME280;69007;48.978;18.066;2023-11-19T02:55:59;97781.22;;;1.27;100.00
46768;BME280;69007;48.978;18.066;2023-11-19T02:58:36;97752.91;;;1.18;100.00
46768;BME280;69007;48.978;18.066;2023-11-19T03:01:02;97785.53;;;1.28;100.00
46768;BME280;69007;48.978;18.066;2023-11-19T03:03:37;97749.84;;;1.21;100.00
46768;BME280;69007;48.978;18.066;2023-11-19T03:06:07;97778.16;;;1.44;100.00
46768;BME280;69007;48.978;18.066;2023-11-19T03:08:34;97762.47;;;1.47;100.00
46768;BME280;69007;48.978;18.066;2023-11-19T03:11:00;97756.28;;;1.47;100.00
46768;BME280;69007;48.978;18.066;2023-11-19T03:13:25;97717.91;;;1.33;100.00
46768;BME280;69007;48.978;18.066;2023-11-19T03:15:52;97745.97;;;1.51;100.00
46768;BME280;69007;48.978;18.066;2023-11-19T03:18:19;97747.63;;;1.52;100.00
46768;BME280;69007;48.978;18.066;2023-11-19T03:20:46;97759.81;;;1.54;100.00
46768;BME280;69007;48.978;18.066;2023-11-19T03:23:11;97741.63;;;1.50;100.00
46768;BME280;69007;48.978;18.066;2023-11-19T03:25:37;97741.44;;;1.58;100.00
46768;BME280;69007;48.978;18.066;2023-11-19T03:28:03;97747.22;;;1.61;100.00
46768;BME280;69007;48.978;18.066;2023-11-19T03:30:29;97733.38;;;1.58;100.00
46768;BME280;69007;48.978;18.066;2023-11-19T03:32:56;97692.75;;;1.27;100.00
46768;BME280;69007;48.978;18.066;2023-11-19T03:35:22;97728.63;;;1.53;100.00
46768;BME280;69007;48.978;18.066;2023-11-19T03:37:47;97696.66;;;1.45;100.00
46768;BME280;69007;48.978;18.066;2023-11-19T03:40:13;97717.50;;;1.56;100.00
46768;BME280;69007;48.978;18.066;2023-11-19T03:42:39;97657.69;;;1.22;100.00
46768;BME280;69007;48.978;18.066;2023-11-19T03:45:08;97710.31;;;1.57;100.00
46768;BME280;69007;48.978;18.066;2023-11-19T03:47:36;97713.59;;;1.52;100.00
46768;BME280;69007;48.978;18.066;2023-11-19T03:50:02;97703.28;;;1.56;100.00
46768;BME280;69007;48.978;18.066;2023-11-19T03:52:28;97675.84;;;1.40;100.00
46768;BME280;69007;48.978;18.066;2023-11-19T03:54:54;97700.19;;;1.59;100.00
46768;BME280;69007;48.978;18.066;2023-11-19T03:57:20;97702.66;;;1.67;100.00
46768;BME280;69007;48.978;18.066;2023-11-19T03:59:46;97703.28;;;1.62;100.00
46768;BME280;69007;48.978;18.066;2023-11-19T04:02:11;97698.94;;;1.61;100.00
46768;BME280;69007;48.978;18.066;2023-11-19T04:04:37;97672.13;;;1.41;100.00
46768;BME280;69007;48.978;18.066;2023-11-19T04:07:04;97704.28;;;1.55;100.00
46768;BME280;69007;48.978;18.066;2023-11-19T04:09:30;97706.97;;;1.48;100.00
46768;BME280;69007;48.978;18.066;2023-11-19T04:11:56;97654.34;;;1.14;100.00
46768;BME280;69007;48.978;18.066;2023-11-19T04:14:22;97681.59;;;1.17;100.00
46768;BME280;69007;48.978;18.066;2023-11-19T04:16:47;97704.28;;;1.28;100.00
46768;BME280;69007;48.978;18.066;2023-11-19T04:19:13;97721.81;;;1.31;100.00
46768;BME280;69007;48.978;18.066;2023-11-19T04:21:41;97729.44;;;1.34;100.00
46768;BME280;69007;48.978;18.066;2023-11-19T04:24:08;97713.78;;;1.31;100.00
46768;BME280;69007;48.978;18.066;2023-11-19T04:26:34;97731.72;;;1.37;100.00
46768;BME280;69007;48.978;18.066;2023-11-19T04:28:59;97696.84;;;1.23;100.00
46768;BME280;69007;48.978;18.066;2023-11-19T04:31:29;97704.28;;;1.35;100.00
46768;BME280;69007;48.978;18.066;2023-11-19T04:33:56;97738.75;;;1.44;100.00
46768;BME280;69007;48.978;18.066;2023-11-19T04:36:21;97732.75;;;1.42;100.00
46768;BME280;69007;48.978;18.066;2023-11-19T04:38:49;97710.91;;;1.32;100.00
46768;BME280;69007;48.978;18.066;2023-11-19T04:41:14;97692.31;;;1.24;100.00
46768;BME280;69007;48.978;18.066;2023-11-19T04:43:40;97722.66;;;1.38;100.00
46768;BME280;69007;48.978;18.066;2023-11-19T04:46:05;97692.31;;;1.17;100.00
46768;BME280;69007;48.978;18.066;2023-11-19T04:48:31;97691.50;;;1.30;100.00
46768;BME280;69007;48.978;18.066;2023-11-19T04:50:56;97710.69;;;1.40;100.00
46768;BME280;69007;48.978;18.066;2023-11-19T04:53:22;97727.41;;;1.42;100.00
46768;BME280;69007;48.978;18.066;2023-11-19T04:55:47;97727.19;;;1.44;100.00
46768;BME280;69007;48.978;18.066;2023-11-19T04:58:12;97721.63;;;1.45;100.00
46768;BME280;69007;48.978;18.066;2023-11-19T05:00:38;97684.69;;;1.27;100.00
46768;BME280;69007;48.978;18.066;2023-11-19T05:03:03;97719.16;;;1.51;100.00
46768;BME280;69007;48.978;18.066;2023-11-19T05:05:29;97712.34;;;1.55;100.00
46768;BME280;69007;48.978;18.066;2023-11-19T05:07:54;97662.19;;;1.28;100.00
46768;BME280;69007;48.978;18.066;2023-11-19T05:10:20;97712.53;;;1.40;100.00
46768;BME280;69007;48.978;18.066;2023-11-19T05:12:45;97671.25;;;0.94;100.00
46768;BME280;69007;48.978;18.066;2023-11-19T05:15:11;97677.22;;;0.89;100.00
46768;BME280;69007;48.978;18.066;2023-11-19T05:17:37;97706.50;;;1.04;100.00
46768;BME280;69007;48.978;18.066;2023-11-19T05:20:03;97687.16;;;1.16;100.00
46768;BME280;69007;48.978;18.066;2023-11-19T05:22:28;97673.56;;;1.17;100.00
46768;BME280;69007;48.978;18.066;2023-11-19T05:24:53;97671.06;;;1.16;100.00
46768;BME280;69007;48.978;18.066;2023-11-19T05:27:19;97688.81;;;1.30;100.00
46768;BME280;69007;48.978;18.066;2023-11-19T05:29:45;97647.97;;;1.15;100.00
46768;BME280;69007;48.978;18.066;2023-11-19T05:32:10;97685.13;;;1.38;100.00
46768;BME280;69007;48.978;18.066;2023-11-19T05:34:36;97651.47;;;1.28;100.00
46768;BME280;69007;48.978;18.066;2023-11-19T05:37:01;97657.28;;;1.39;100.00
46768;BME280;69007;48.978;18.066;2023-11-19T05:39:28;97649.00;;;1.34;100.00
46768;BME280;69007;48.978;18.066;2023-11-19T05:41:53;97613.75;;;1.10;100.00
46768;BME280;69007;48.978;18.066;2023-11-19T05:44:18;97594.56;;;0.93;100.00
46768;BME280;69007;48.978;18.066;2023-11-19T05:46:44;97630.88;;;1.16;100.00
46768;BME280;69007;48.978;18.066;2023-11-19T05:49:11;97607.34;;;0.98;100.00
46768;BME280;69007;48.978;18.066;2023-11-19T05:51:37;97664.88;;;1.28;100.00
46768;BME280;69007;48.978;18.066;2023-11-19T05:54:05;97638.72;;;1.17;100.00
46768;BME280;69007;48.978;18.066;2023-11-19T05:56:32;97655.41;;;1.39;100.00
46768;BME280;69007;48.978;18.066;2023-11-19T05:58:58;97632.09;;;1.26;100.00
46768;BME280;69007;48.978;18.066;2023-11-19T06:01:25;97630.47;;;1.32;100.00
46768;BME280;69007;48.978;18.066;2023-11-19T06:03:51;97662.84;;;1.51;100.00
46768;BME280;69007;48.978;18.066;2023-11-19T06:06:17;97637.47;;;1.33;100.00
46768;BME280;69007;48.978;18.066;2023-11-19T06:08:42;97624.06;;;1.26;100.00
46768;BME280;69007;48.978;18.066;2023-11-19T06:11:09;97653.34;;;1.41;100.00
46768;BME280;69007;48.978;18.066;2023-11-19T06:13:39;97663.25;;;1.47;100.00
46768;BME280;69007;48.978;18.066;2023-11-19T06:16:05;97628.81;;;1.31;100.00
46768;BME280;69007;48.978;18.066;2023-11-19T06:18:30;97656.66;;;1.63;100.00
46768;BME280;69007;48.978;18.066;2023-11-19T06:20:56;97626.31;;;1.43;100.00
46768;BME280;69007;48.978;18.066;2023-11-19T06:23:22;97654.59;;;1.65;100.00
46768;BME280;69007;48.978;18.066;2023-11-19T06:25:47;97653.13;;;1.56;100.00
46768;BME280;69007;48.978;18.066;2023-11-19T06:28:12;97620.16;;;1.36;100.00
46768;BME280;69007;48.978;18.066;2023-11-19T06:30:38;97624.25;;;1.45;100.00
46768;BME280;69007;48.978;18.066;2023-11-19T06:33:04;97595.41;;;1.40;100.00
46768;BME280;69007;48.978;18.066;2023-11-19T06:35:29;97610.03;;;1.51;100.00
46768;BME280;69007;48.978;18.066;2023-11-19T06:38:02;97599.91;;;1.53;100.00
46768;BME280;69007;48.978;18.066;2023-11-19T06:40:28;97605.28;;;1.40;100.00
46768;BME280;69007;48.978;18.066;2023-11-19T06:42:53;97572.13;;;1.14;100.00
46768;BME280;69007;48.978;18.066;2023-11-19T06:45:18;97574.16;;;0.99;100.00
46768;BME280;69007;48.978;18.066;2023-11-19T06:47:44;97605.91;;;1.02;100.00
46768;BME280;69007;48.978;18.066;2023-11-19T06:50:09;97603.63;;;1.12;100.00
46768;BME280;69007;48.978;18.066;2023-11-19T06:52:34;97630.88;;;1.22;100.00
46768;BME280;69007;48.978;18.066;2023-11-19T06:55:02;97593.97;;;1.11;100.00
46768;BME280;69007;48.978;18.066;2023-11-19T06:57:27;97611.66;;;1.19;100.00
46768;BME280;69007;48.978;18.066;2023-11-19T06:59:54;97613.53;;;1.32;100.00
46768;BME280;69007;48.978;18.066;2023-11-19T07:02:19;97630.66;;;1.44;100.00
46768;BME280;69007;48.978;18.066;2023-11-19T07:04:45;97624.44;;;1.50;100.00
46768;BME280;69007;48.978;18.066;2023-11-19T07:07:10;97634.78;;;1.53;100.00
46768;BME280;69007;48.978;18.066;2023-11-19T07:09:36;97615.81;;;1.41;100.00
46768;BME280;69007;48.978;18.066;2023-11-19T07:12:02;97637.88;;;1.63;100.00
46768;BME280;69007;48.978;18.066;2023-11-19T07:14:29;97594.97;;;1.50;100.00
46768;BME280;69007;48.978;18.066;2023-11-19T07:16:55;97580.91;;;1.61;100.00
46768;BME280;69007;48.978;18.066;2023-11-19T07:19:21;97601.50;;;1.81;100.00
46768;BME280;69007;48.978;18.066;2023-11-19T07:21:46;97594.13;;;1.63;100.00
46768;BME280;69007;48.978;18.066;2023-11-19T07:24:11;97602.78;;;1.58;100.00
46768;BME280;69007;48.978;18.066;2023-11-19T07:26:43;97576.63;;;1.40;100.00
46768;BME280;69007;48.978;18.066;2023-11-19T07:29:09;97600.34;;;1.57;100.00
46768;BME280;69007;48.978;18.066;2023-11-19T07:31:35;97570.41;;;1.53;100.00
46768;BME280;69007;48.978;18.066;2023-11-19T07:34:01;97548.56;;;1.36;100.00
46768;BME280;69007;48.978;18.066;2023-11-19T07:36:26;97590.81;;;1.61;100.00
46768;BME280;69007;48.978;18.066;2023-11-19T07:38:51;97539.50;;;1.51;100.00
46768;BME280;69007;48.978;18.066;2023-11-19T07:41:17;97553.66;;;1.71;100.00
46768;BME280;69007;48.978;18.066;2023-11-19T07:43:45;97556.34;;;1.64;100.00
46768;BME280;69007;48.978;18.066;2023-11-19T07:46:12;97529.41;;;1.33;100.00
46768;BME280;69007;48.978;18.066;2023-11-19T07:48:38;97566.72;;;1.34;100.00
46768;BME280;69007;48.978;18.066;2023-11-19T07:51:04;97565.28;;;1.38;100.00
46768;BME280;69007;48.978;18.066;2023-11-19T07:53:29;97527.56;;;1.26;100.00
46768;BME280;69007;48.978;18.066;2023-11-19T07:55:55;97545.47;;;1.46;100.00
46768;BME280;69007;48.978;18.066;2023-11-19T07:58:20;97551.25;;;1.43;100.00
46768;BME280;69007;48.978;18.066;2023-11-19T08:00:46;97552.06;;;1.43;100.00
46768;BME280;69007;48.978;18.066;2023-11-19T08:03:12;97539.75;;;1.22;100.00
46768;BME280;69007;48.978;18.066;2023-11-19T08:05:37;97560.78;;;1.25;100.00
46768;BME280;69007;48.978;18.066;2023-11-19T08:08:03;97590.22;;;1.52;100.00
46768;BME280;69007;48.978;18.066;2023-11-19T08:10:28;97562.19;;;1.41;100.00
46768;BME280;69007;48.978;18.066;2023-11-19T08:12:54;97591.84;;;1.66;100.00
46768;BME280;69007;48.978;18.066;2023-11-19T08:15:20;97583.38;;;1.70;100.00
46768;BME280;69007;48.978;18.066;2023-11-19T08:17:45;97578.84;;;1.70;100.00
46768;BME280;69007;48.978;18.066;2023-11-19T08:20:11;97573.06;;;1.80;100.00
46768;BME280;69007;48.978;18.066;2023-11-19T08:22:36;97546.25;;;1.60;100.00
46768;BME280;69007;48.978;18.066;2023-11-19T08:25:06;97581.53;;;1.77;100.00
46768;BME280;69007;48.978;18.066;2023-11-19T08:27:32;97567.47;;;1.75;100.00
46768;BME280;69007;48.978;18.066;2023-11-19T08:29:58;97513.66;;;1.56;100.00
46768;BME280;69007;48.978;18.066;2023-11-19T08:32:24;97535.09;;;1.63;100.00
46768;BME280;69007;48.978;18.066;2023-11-19T08:34:49;97535.50;;;1.73;100.00
46768;BME280;69007;48.978;18.066;2023-11-19T08:37:15;97549.09;;;1.85;100.00
46768;BME280;69007;48.978;18.066;2023-11-19T08:39:43;97508.66;;;1.73;100.00
46768;BME280;69007;48.978;18.066;2023-11-19T08:42:09;97515.53;;;1.56;100.00
46768;BME280;69007;48.978;18.066;2023-11-19T08:44:34;97530.38;;;1.58;100.00
46768;BME280;69007;48.978;18.066;2023-11-19T08:46:59;97551.00;;;1.64;100.00
46768;BME280;69007;48.978;18.066;2023-11-19T08:49:25;97558.84;;;1.59;100.00
46768;BME280;69007;48.978;18.066;2023-11-19T08:51:51;97514.94;;;1.34;100.00
46768;BME280;69007;48.978;18.066;2023-11-19T08:54:16;97563.41;;;1.52;100.00
46768;BME280;69007;48.978;18.066;2023-11-19T08:56:41;97553.69;;;1.64;100.00
46768;BME280;69007;48.978;18.066;2023-11-19T08:59:07;97542.56;;;1.61;100.00
46768;BME280;69007;48.978;18.066;2023-11-19T09:01:32;97530.19;;;1.46;100.00
46768;BME280;69007;48.978;18.066;2023-11-19T09:03:57;97543.56;;;1.66;100.00
46768;BME280;69007;48.978;18.066;2023-11-19T09:06:23;97521.88;;;1.68;100.00
46768;BME280;69007;48.978;18.066;2023-11-19T09:08:48;97543.06;;;1.90;100.00
46768;BME280;69007;48.978;18.066;2023-11-19T09:11:14;97536.53;;;1.79;100.00
46768;BME280;69007;48.978;18.066;2023-11-19T09:13:39;97541.72;;;1.60;100.00
46768;BME280;69007;48.978;18.066;2023-11-19T09:16:05;97525.22;;;1.50;100.00
46768;BME280;69007;48.978;18.066;2023-11-19T09:18:30;97534.53;;;1.54;100.00
46768;BME280;69007;48.978;18.066;2023-11-19T09:20:57;97509.19;;;1.37;100.00
46768;BME280;69007;48.978;18.066;2023-11-19T09:23:22;97534.97;;;1.38;100.00
46768;BME280;69007;48.978;18.066;2023-11-19T09:25:47;97542.81;;;1.26;100.00
46768;BME280;69007;48.978;18.066;2023-11-19T09:28:13;97546.31;;;1.20;100.00
46768;BME280;69007;48.978;18.066;2023-11-19T09:30:39;97541.38;;;1.10;100.00
46768;BME280;69007;48.978;18.066;2023-11-19T09:33:05;97523.69;;;1.09;100.00
46768;BME280;69007;48.978;18.066;2023-11-19T09:35:31;97515.19;;;1.25;100.00
46768;BME280;69007;48.978;18.066;2023-11-19T09:37:56;97503.44;;;1.20;100.00
46768;BME280;69007;48.978;18.066;2023-11-19T09:40:22;97511.28;;;1.15;100.00
46768;BME280;69007;48.978;18.066;2023-11-19T09:42:48;97474.22;;;0.91;100.00
46768;BME280;69007;48.978;18.066;2023-11-19T09:45:15;97479.56;;;0.91;100.00
46768;BME280;69007;48.978;18.066;2023-11-19T09:47:45;97516.84;;;1.20;100.00
46768;BME280;69007;48.978;18.066;2023-11-19T09:50:18;97524.47;;;1.29;100.00
46768;BME280;69007;48.978;18.066;2023-11-19T09:52:44;97515.81;;;1.27;100.00
46768;BME280;69007;48.978;18.066;2023-11-19T09:55:10;97504.22;;;1.34;100.00
46768;BME280;69007;48.978;18.066;2023-11-19T09:57:38;97454.81;;;1.03;100.00
46768;BME280;69007;48.978;18.066;2023-11-19T10:00:04;97504.66;;;1.37;100.00
46768;BME280;69007;48.978;18.066;2023-11-19T10:02:34;97493.50;;;1.47;100.00
46768;BME280;69007;48.978;18.066;2023-11-19T10:05:12;97486.00;;;1.62;100.00
46768;BME280;69007;48.978;18.066;2023-11-19T10:07:38;97466.00;;;1.58;100.00
46768;BME280;69007;48.978;18.066;2023-11-19T10:10:04;97464.59;;;1.49;100.00
46768;BME280;69007;48.978;18.066;2023-11-19T10:12:30;97480.69;;;1.49;100.00
46768;BME280;69007;48.978;18.066;2023-11-19T10:14:57;97455.97;;;1.47;100.00
46768;BME280;69007;48.978;18.066;2023-11-19T10:17:33;97416.44;;;1.22;100.00
46768;BME280;69007;48.978;18.066;2023-11-19T10:19:59;97447.94;;;1.34;100.00
46768;BME280;69007;48.978;18.066;2023-11-19T10:22:24;97441.78;;;1.26;100.00
46768;BME280;69007;48.978;18.066;2023-11-19T10:24:51;97401.63;;;1.06;100.00
46768;BME280;69007;48.978;18.066;2023-11-19T10:27:17;97432.09;;;1.25;100.00
46768;BME280;69007;48.978;18.066;2023-11-19T10:29:47;97431.25;;;1.25;100.00
46768;BME280;69007;48.978;18.066;2023-11-19T10:32:13;97415.38;;;1.23;100.00
46768;BME280;69007;48.978;18.066;2023-11-19T10:34:41;97366.63;;;0.95;100.00
46768;BME280;69007;48.978;18.066;2023-11-19T10:37:08;97410.91;;;1.17;100.00
46768;BME280;69007;48.978;18.066;2023-11-19T10:39:52;97425.28;;;1.29;100.00
46768;BME280;69007;48.978;18.066;2023-11-19T10:42:20;97434.53;;;1.27;100.00
46768;BME280;69007;48.978;18.066;2023-11-19T10:44:46;97397.91;;;1.14;100.00
46768;BME280;69007;48.978;18.066;2023-11-19T10:47:13;97440.91;;;1.46;100.00
46768;BME280;69007;48.978;18.066;2023-11-19T10:49:39;97414.69;;;1.48;100.00
46768;BME280;69007;48.978;18.066;2023-11-19T10:52:07;97415.75;;;1.47;100.00
46768;BME280;69007;48.978;18.066;2023-11-19T10:54:34;97405.97;;;1.59;100.00
46768;BME280;69007;48.978;18.066;2023-11-19T10:57:01;97409.41;;;1.80;100.00
46768;BME280;69007;48.978;18.066;2023-11-19T10:59:30;97419.22;;;1.93;100.00
46768;BME280;69007;48.978;18.066;2023-11-19T11:01:57;97386.63;;;1.89;100.00
46768;BME280;69007;48.978;18.066;2023-11-19T11:04:23;97401.91;;;2.20;100.00
46768;BME280;69007;48.978;18.066;2023-11-19T11:06:51;97387.06;;;2.18;100.00
46768;BME280;69007;48.978;18.066;2023-11-19T11:09:17;97397.72;;;2.31;100.00
46768;BME280;69007;48.978;18.066;2023-11-19T11:11:47;97381.22;;;2.28;100.00
46768;BME280;69007;48.978;18.066;2023-11-19T11:14:13;97370.97;;;2.18;100.00
46768;BME280;69007;48.978;18.066;2023-11-19T11:16:42;97363.69;;;1.93;100.00
46768;BME280;69007;48.978;18.066;2023-11-19T11:19:10;97382.00;;;2.03;100.00
46768;BME280;69007;48.978;18.066;2023-11-19T11:21:37;97383.41;;;2.06;100.00
46768;BME280;69007;48.978;18.066;2023-11-19T11:24:20;97382.69;;;1.92;100.00
46768;BME280;69007;48.978;18.066;2023-11-19T11:32:43;97374.53;;;1.80;100.00
46768;BME280;69007;48.978;18.066;2023-11-19T11:38:06;97358.84;;;1.77;100.00
46768;BME280;69007;48.978;18.066;2023-11-19T11:40:32;97358.69;;;1.72;100.00
46768;BME280;69007;48.978;18.066;2023-11-19T11:42:57;97319.59;;;1.51;100.00
46768;BME280;69007;48.978;18.066;2023-11-19T11:45:39;97361.63;;;1.63;100.00
46768;BME280;69007;48.978;18.066;2023-11-19T11:50:48;97348.34;;;1.75;100.00
46768;BME280;69007;48.978;18.066;2023-11-19T11:53:19;97333.69;;;1.71;100.00
46768;BME280;69007;48.978;18.066;2023-11-19T11:58:13;97318.03;;;1.68;100.00
46768;BME280;69007;48.978;18.066;2023-11-19T12:00:40;97312.88;;;1.66;100.00
46768;BME280;69007;48.978;18.066;2023-11-19T12:03:08;97305.28;;;1.63;100.00
46768;BME280;69007;48.978;18.066;2023-11-19T12:05:38;97319.91;;;1.68;100.00
46768;BME280;69007;48.978;18.066;2023-11-19T12:08:07;97316.44;;;1.60;100.00
46768;BME280;69007;48.978;18.066;2023-11-19T12:10:47;97332.66;;;1.72;100.00
46768;BME280;69007;48.978;18.066;2023-11-19T12:13:14;97316.78;;;1.71;100.00
46768;BME280;69007;48.978;18.066;2023-11-19T12:16:09;97294.28;;;1.72;100.00
46768;BME280;69007;48.978;18.066;2023-11-19T12:18:35;97305.88;;;1.65;100.00
46768;BME280;69007;48.978;18.066;2023-11-19T12:21:01;97296.44;;;1.56;100.00
46768;BME280;69007;48.978;18.066;2023-11-19T12:23:28;97286.13;;;1.53;100.00
46768;BME280;69007;48.978;18.066;2023-11-19T12:25:54;97299.13;;;1.56;100.00
46768;BME280;69007;48.978;18.066;2023-11-19T12:28:20;97311.91;;;1.61;100.00
46768;BME280;69007;48.978;18.066;2023-11-19T12:30:46;97294.50;;;1.70;100.00
46768;BME280;69007;48.978;18.066;2023-11-19T12:33:12;97293.13;;;1.61;100.00
46768;BME280;69007;48.978;18.066;2023-11-19T12:35:42;97291.28;;;1.55;100.00
46768;BME280;69007;48.978;18.066;2023-11-19T12:38:08;97310.19;;;1.66;100.00
46768;BME280;69007;48.978;18.066;2023-11-19T12:40:43;97314.09;;;1.71;100.00
46768;BME280;69007;48.978;18.066;2023-11-19T12:43:08;97279.38;;;1.51;100.00
46768;BME280;69007;48.978;18.066;2023-11-19T12:45:35;97298.94;;;1.51;100.00
46768;BME280;69007;48.978;18.066;2023-11-19T12:48:08;97291.28;;;1.55;100.00
46768;BME280;69007;48.978;18.066;2023-11-19T12:50:54;97297.03;;;1.58;100.00
46768;BME280;69007;48.978;18.066;2023-11-19T12:53:21;97293.81;;;1.50;100.00
46768;BME280;69007;48.978;18.066;2023-11-19T12:55:47;97269.34;;;1.39;100.00
46768;BME280;69007;48.978;18.066;2023-11-19T12:58:32;97281.44;;;1.49;100.00
46768;BME280;69007;48.978;18.066;2023-11-19T13:01:02;97274.91;;;1.38;100.00